sensor_id;sensor_type;location;lat;lon;timestamp;P1;durP1;ratioP1;P2;durP2;ratioP2
37655;SDS011;23498;50.958;3.124;2024-03-07T00:00:43;41.55;;;24.45;;
37655;SDS011;23498;50.958;3.124;2024-03-07T00:03:14;44.17;;;26.33;;
37655;SDS011;23498;50.958;3.124;2024-03-07T00:05:45;44.20;;;26.05;;
37655;SDS011;23498;50.958;3.124;2024-03-07T00:08:16;47.03;;;26.80;;
37655;SDS011;23498;50.958;3.124;2024-03-07T00:10:42;45.22;;;26.25;;
37655;SDS011;23498;50.958;3.124;2024-03-07T00:13:10;41.78;;;25.80;;
37655;SDS011;23498;50.958;3.124;2024-03-07T00:15:38;44.03;;;25.77;;
37655;SDS011;23498;50.958;3.124;2024-03-07T00:18:05;41.08;;;25.77;;
37655;SDS011;23498;50.958;3.124;2024-03-07T00:20:32;41.67;;;26.10;;
37655;SDS011;23498;50.958;3.124;2024-03-07T00:23:00;42.63;;;25.58;;
37655;SDS011;23498;50.958;3.124;2024-03-07T00:25:28;45.65;;;27.05;;
37655;SDS011;23498;50.958;3.124;2024-03-07T00:27:57;47.13;;;26.67;;
37655;SDS011;23498;50.958;3.124;2024-03-07T00:30:57;51.53;;;28.83;;
37655;SDS011;23498;50.958;3.124;2024-03-07T00:33:23;46.65;;;28.42;;
37655;SDS011;23498;50.958;3.124;2024-03-07T00:35:52;52.10;;;28.60;;
37655;SDS011;23498;50.958;3.124;2024-03-07T00:38:18;47.53;;;28.13;;
37655;SDS011;23498;50.958;3.124;2024-03-07T00:40:44;45.70;;;27.63;;
37655;SDS011;23498;50.958;3.124;2024-03-07T00:43:10;46.97;;;27.30;;
37655;SDS011;23498;50.958;3.124;2024-03-07T00:45:39;46.67;;;28.10;;
37655;SDS011;23498;50.958;3.124;2024-03-07T00:48:06;54.45;;;27.95;;
37655;SDS011;23498;50.958;3.124;2024-03-07T00:50:33;51.13;;;29.15;;
37655;SDS011;23498;50.958;3.124;2024-03-07T00:53:02;55.75;;;29.00;;
37655;SDS011;23498;50.958;3.124;2024-03-07T00:55:28;52.67;;;29.23;;
37655;SDS011;23498;50.958;3.124;2024-03-07T00:57:55;53.20;;;30.13;;
37655;SDS011;23498;50.958;3.124;2024-03-07T01:00:21;53.35;;;29.75;;
37655;SDS011;23498;50.958;3.124;2024-03-07T01:02:50;56.90;;;31.80;;
37655;SDS011;23498;50.958;3.124;2024-03-07T01:05:23;59.15;;;31.98;;
37655;SDS011;23498;50.958;3.124;2024-03-07T01:07:52;62.83;;;32.20;;
37655;SDS011;23498;50.958;3.124;2024-03-07T01:10:21;62.65;;;32.42;;
37655;SDS011;23498;50.958;3.124;2024-03-07T01:12:48;62.17;;;32.45;;
37655;SDS011;23498;50.958;3.124;2024-03-07T01:15:15;58.05;;;30.13;;
37655;SDS011;23498;50.958;3.124;2024-03-07T01:17:41;58.30;;;29.90;;
37655;SDS011;23498;50.958;3.124;2024-03-07T01:20:08;57.85;;;30.45;;
37655;SDS011;23498;50.958;3.124;2024-03-07T01:22:37;62.50;;;32.45;;
37655;SDS011;23498;50.958;3.124;2024-03-07T01:25:05;56.72;;;31.38;;
37655;SDS011;23498;50.958;3.124;2024-03-07T01:27:32;60.17;;;32.60;;
37655;SDS011;23498;50.958;3.124;2024-03-07T01:29:58;60.08;;;32.90;;
37655;SDS011;23498;50.958;3.124;2024-03-07T01:32:29;61.25;;;33.15;;
37655;SDS011;23498;50.958;3.124;2024-03-07T01:34:56;56.97;;;31.52;;
37655;SDS011;23498;50.958;3.124;2024-03-07T01:37:23;62.28;;;31.90;;
37655;SDS011;23498;50.958;3.124;2024-03-07T01:40:11;57.67;;;31.83;;
37655;SDS011;23498;50.958;3.124;2024-03-07T01:42:40;69.78;;;34.90;;
37655;SDS011;23498;50.958;3.124;2024-03-07T01:45:07;64.10;;;33.88;;
37655;SDS011;23498;50.958;3.124;2024-03-07T01:47:57;66.82;;;34.92;;
37655;SDS011;23498;50.958;3.124;2024-03-07T01:50:27;61.38;;;35.15;;
37655;SDS011;23498;50.958;3.124;2024-03-07T01:52:54;63.10;;;35.67;;
37655;SDS011;23498;50.958;3.124;2024-03-07T01:55:22;62.53;;;35.42;;
37655;SDS011;23498;50.958;3.124;2024-03-07T01:57:48;68.18;;;36.15;;
37655;SDS011;23498;50.958;3.124;2024-03-07T02:00:15;66.50;;;35.92;;
37655;SDS011;23498;50.958;3.124;2024-03-07T02:02:43;70.35;;;37.22;;
37655;SDS011;23498;50.958;3.124;2024-03-07T02:05:11;69.57;;;37.13;;
37655;SDS011;23498;50.958;3.124;2024-03-07T02:07:39;68.57;;;37.63;;
37655;SDS011;23498;50.958;3.124;2024-03-07T02:10:11;72.90;;;38.15;;
37655;SDS011;23498;50.958;3.124;2024-03-07T02:12:38;65.03;;;36.83;;
37655;SDS011;23498;50.958;3.124;2024-03-07T02:15:08;66.85;;;36.83;;
37655;SDS011;23498;50.958;3.124;2024-03-07T02:17:39;65.85;;;35.70;;
37655;SDS011;23498;50.958;3.124;2024-03-07T02:20:09;68.82;;;35.97;;
37655;SDS011;23498;50.958;3.124;2024-03-07T02:22:44;65.43;;;35.65;;
37655;SDS011;23498;50.958;3.124;2024-03-07T02:25:11;66.45;;;36.08;;
37655;SDS011;23498;50.958;3.124;2024-03-07T02:28:04;68.75;;;35.15;;
37655;SDS011;23498;50.958;3.124;2024-03-07T02:30:42;70.38;;;36.08;;
37655;SDS011;23498;50.958;3.124;2024-03-07T02:33:29;71.10;;;36.08;;
37655;SDS011;23498;50.958;3.124;2024-03-07T02:36:07;65.28;;;34.42;;
37655;SDS011;23498;50.958;3.124;2024-03-07T02:38:33;68.93;;;35.15;;
37655;SDS011;23498;50.958;3.124;2024-03-07T02:41:04;68.45;;;36.20;;
37655;SDS011;23498;50.958;3.124;2024-03-07T02:43:33;71.70;;;36.03;;
37655;SDS011;23498;50.958;3.124;2024-03-07T02:46:06;70.57;;;37.13;;
37655;SDS011;23498;50.958;3.124;2024-03-07T02:48:32;67.43;;;35.55;;
37655;SDS011;23498;50.958;3.124;2024-03-07T02:51:00;68.95;;;35.55;;
37655;SDS011;23498;50.958;3.124;2024-03-07T02:53:37;69.22;;;36.88;;
37655;SDS011;23498;50.958;3.124;2024-03-07T02:56:10;72.50;;;37.83;;
37655;SDS011;23498;50.958;3.124;2024-03-07T02:58:36;73.32;;;38.13;;
37655;SDS011;23498;50.958;3.124;2024-03-07T03:01:04;75.13;;;38.60;;
37655;SDS011;23498;50.958;3.124;2024-03-07T03:03:44;72.20;;;37.67;;
37655;SDS011;23498;50.958;3.124;2024-03-07T03:06:10;74.60;;;38.65;;
37655;SDS011;23498;50.958;3.124;2024-03-07T03:08:36;69.43;;;37.05;;
37655;SDS011;23498;50.958;3.124;2024-03-07T03:11:02;73.22;;;37.08;;
37655;SDS011;23498;50.958;3.124;2024-03-07T03:13:30;76.53;;;39.00;;
37655;SDS011;23498;50.958;3.124;2024-03-07T03:15:57;74.47;;;37.75;;
37655;SDS011;23498;50.958;3.124;2024-03-07T03:18:23;77.30;;;38.53;;
37655;SDS011;23498;50.958;3.124;2024-03-07T03:20:50;78.05;;;38.35;;
37655;SDS011;23498;50.958;3.124;2024-03-07T03:23:17;75.85;;;38.85;;
37655;SDS011;23498;50.958;3.124;2024-03-07T03:25:46;75.47;;;38.17;;
37655;SDS011;23498;50.958;3.124;2024-03-07T03:28:16;76.47;;;39.83;;
37655;SDS011;23498;50.958;3.124;2024-03-07T03:30:44;80.90;;;39.47;;
37655;SDS011;23498;50.958;3.124;2024-03-07T03:33:12;75.15;;;38.95;;
37655;SDS011;23498;50.958;3.124;2024-03-07T03:35:38;77.38;;;39.47;;
37655;SDS011;23498;50.958;3.124;2024-03-07T03:38:06;80.60;;;39.45;;
37655;SDS011;23498;50.958;3.124;2024-03-07T03:40:41;77.07;;;38.83;;
37655;SDS011;23498;50.958;3.124;2024-03-07T03:43:07;80.72;;;39.75;;
37655;SDS011;23498;50.958;3.124;2024-03-07T03:45:35;76.63;;;38.70;;
37655;SDS011;23498;50.958;3.124;2024-03-07T03:48:07;80.50;;;39.95;;
37655;SDS011;23498;50.958;3.124;2024-03-07T03:50:34;81.95;;;40.13;;
37655;SDS011;23498;50.958;3.124;2024-03-07T03:53:00;78.60;;;39.40;;
37655;SDS011;23498;50.958;3.124;2024-03-07T03:55:29;80.20;;;40.22;;
37655;SDS011;23498;50.958;3.124;2024-03-07T03:58:00;76.65;;;37.92;;
37655;SDS011;23498;50.958;3.124;2024-03-07T04:00:31;80.88;;;40.58;;
37655;SDS011;23498;50.958;3.124;2024-03-07T04:02:57;75.35;;;39.70;;
37655;SDS011;23498;50.958;3.124;2024-03-07T04:05:31;78.28;;;40.80;;
37655;SDS011;23498;50.958;3.124;2024-03-07T04:07:57;76.72;;;38.40;;
37655;SDS011;23498;50.958;3.124;2024-03-07T04:10:24;77.50;;;39.47;;
37655;SDS011;23498;50.958;3.124;2024-03-07T04:12:59;83.57;;;40.30;;
37655;SDS011;23498;50.958;3.124;2024-03-07T04:15:25;80.18;;;40.40;;
37655;SDS011;23498;50.958;3.124;2024-03-07T04:17:56;82.15;;;40.33;;
37655;SDS011;23498;50.958;3.124;2024-03-07T04:20:22;83.25;;;40.15;;
37655;SDS011;23498;50.958;3.124;2024-03-07T04:22:55;83.20;;;38.92;;
37655;SDS011;23498;50.958;3.124;2024-03-07T04:25:21;80.30;;;39.58;;
37655;SDS011;23498;50.958;3.124;2024-03-07T04:27:48;78.72;;;39.88;;
37655;SDS011;23498;50.958;3.124;2024-03-07T04:30:14;80.75;;;39.65;;
37655;SDS011;23498;50.958;3.124;2024-03-07T04:32:42;81.35;;;39.88;;
37655;SDS011;23498;50.958;3.124;2024-03-07T04:35:09;82.63;;;40.03;;
37655;SDS011;23498;50.958;3.124;2024-03-07T04:37:36;82.78;;;39.25;;
37655;SDS011;23498;50.958;3.124;2024-03-07T04:40:09;81.13;;;40.45;;
37655;SDS011;23498;50.958;3.124;2024-03-07T04:42:55;85.53;;;42.10;;
37655;SDS011;23498;50.958;3.124;2024-03-07T04:45:35;86.88;;;41.10;;
37655;SDS011;23498;50.958;3.124;2024-03-07T04:48:07;90.97;;;42.55;;
37655;SDS011;23498;50.958;3.124;2024-03-07T04:50:53;87.97;;;41.53;;
37655;SDS011;23498;50.958;3.124;2024-03-07T04:53:19;87.88;;;44.35;;
37655;SDS011;23498;50.958;3.124;2024-03-07T04:55:46;91.95;;;43.20;;
37655;SDS011;23498;50.958;3.124;2024-03-07T04:58:13;89.60;;;43.03;;
37655;SDS011;23498;50.958;3.124;2024-03-07T05:00:47;99.25;;;44.92;;
37655;SDS011;23498;50.958;3.124;2024-03-07T05:03:14;99.72;;;47.03;;
37655;SDS011;23498;50.958;3.124;2024-03-07T05:05:46;101.68;;;46.72;;
37655;SDS011;23498;50.958;3.124;2024-03-07T05:08:16;99.47;;;46.80;;
37655;SDS011;23498;50.958;3.124;2024-03-07T05:10:45;100.10;;;46.28;;
37655;SDS011;23498;50.958;3.124;2024-03-07T05:13:14;102.05;;;46.53;;
37655;SDS011;23498;50.958;3.124;2024-03-07T05:15:45;101.95;;;48.15;;
37655;SDS011;23498;50.958;3.124;2024-03-07T05:18:13;98.90;;;44.92;;
37655;SDS011;23498;50.958;3.124;2024-03-07T05:20:41;103.05;;;46.03;;
37655;SDS011;23498;50.958;3.124;2024-03-07T05:23:07;96.22;;;45.20;;
37655;SDS011;23498;50.958;3.124;2024-03-07T05:25:35;104.93;;;45.75;;
37655;SDS011;23498;50.958;3.124;2024-03-07T05:28:02;100.82;;;45.53;;
37655;SDS011;23498;50.958;3.124;2024-03-07T05:30:29;103.55;;;47.17;;
37655;SDS011;23498;50.958;3.124;2024-03-07T05:32:59;104.25;;;47.33;;
37655;SDS011;23498;50.958;3.124;2024-03-07T05:35:27;95.80;;;45.42;;
37655;SDS011;23498;50.958;3.124;2024-03-07T05:37:55;109.90;;;48.33;;
37655;SDS011;23498;50.958;3.124;2024-03-07T05:40:29;106.68;;;47.17;;
37655;SDS011;23498;50.958;3.124;2024-03-07T05:42:59;105.03;;;46.63;;
37655;SDS011;23498;50.958;3.124;2024-03-07T05:45:30;105.28;;;48.25;;
37655;SDS011;23498;50.958;3.124;2024-03-07T05:48:14;107.00;;;45.88;;
37655;SDS011;23498;50.958;3.124;2024-03-07T05:50:44;104.90;;;46.45;;
37655;SDS011;23498;50.958;3.124;2024-03-07T05:53:10;103.78;;;47.20;;
37655;SDS011;23498;50.958;3.124;2024-03-07T05:55:37;105.35;;;47.70;;
37655;SDS011;23498;50.958;3.124;2024-03-07T05:58:03;96.97;;;44.80;;
37655;SDS011;23498;50.958;3.124;2024-03-07T06:00:31;95.72;;;44.78;;
37655;SDS011;23498;50.958;3.124;2024-03-07T06:03:00;105.55;;;47.67;;
37655;SDS011;23498;50.958;3.124;2024-03-07T06:05:30;96.07;;;46.60;;
37655;SDS011;23498;50.958;3.124;2024-03-07T06:07:57;98.60;;;46.65;;
37655;SDS011;23498;50.958;3.124;2024-03-07T06:10:23;105.03;;;47.50;;
37655;SDS011;23498;50.958;3.124;2024-03-07T06:12:56;102.60;;;46.70;;
37655;SDS011;23498;50.958;3.124;2024-03-07T06:15:24;99.57;;;45.92;;
37655;SDS011;23498;50.958;3.124;2024-03-07T06:17:50;97.65;;;46.50;;
37655;SDS011;23498;50.958;3.124;2024-03-07T06:20:19;99.40;;;46.10;;
37655;SDS011;23498;50.958;3.124;2024-03-07T06:22:48;104.20;;;46.45;;
37655;SDS011;23498;50.958;3.124;2024-03-07T06:25:21;104.35;;;48.22;;
37655;SDS011;23498;50.958;3.124;2024-03-07T06:28:06;103.38;;;46.95;;
37655;SDS011;23498;50.958;3.124;2024-03-07T06:30:37;103.85;;;47.58;;
37655;SDS011;23498;50.958;3.124;2024-03-07T06:33:24;102.78;;;46.58;;
37655;SDS011;23498;50.958;3.124;2024-03-07T06:35:53;107.07;;;47.70;;
37655;SDS011;23498;50.958;3.124;2024-03-07T06:38:22;106.90;;;46.63;;
37655;SDS011;23498;50.958;3.124;2024-03-07T06:40:48;106.25;;;47.65;;
37655;SDS011;23498;50.958;3.124;2024-03-07T06:43:14;108.40;;;47.80;;
37655;SDS011;23498;50.958;3.124;2024-03-07T06:45:46;111.72;;;47.35;;
37655;SDS011;23498;50.958;3.124;2024-03-07T06:48:13;111.63;;;48.42;;
37655;SDS011;23498;50.958;3.124;2024-03-07T06:50:39;109.20;;;49.10;;
37655;SDS011;23498;50.958;3.124;2024-03-07T06:53:06;109.90;;;48.38;;
37655;SDS011;23498;50.958;3.124;2024-03-07T06:55:32;109.32;;;47.53;;
37655;SDS011;23498;50.958;3.124;2024-03-07T06:58:02;108.40;;;49.45;;
37655;SDS011;23498;50.958;3.124;2024-03-07T07:00:33;111.50;;;49.63;;
37655;SDS011;23498;50.958;3.124;2024-03-07T07:03:01;109.55;;;48.38;;
37655;SDS011;23498;50.958;3.124;2024-03-07T07:05:29;122.75;;;51.25;;
37655;SDS011;23498;50.958;3.124;2024-03-07T07:07:55;116.25;;;49.70;;
37655;SDS011;23498;50.958;3.124;2024-03-07T07:10:29;117.10;;;50.20;;
37655;SDS011;23498;50.958;3.124;2024-03-07T07:12:55;112.72;;;48.75;;
37655;SDS011;23498;50.958;3.124;2024-03-07T07:15:21;109.45;;;47.97;;
37655;SDS011;23498;50.958;3.124;2024-03-07T07:17:47;109.57;;;49.63;;
37655;SDS011;23498;50.958;3.124;2024-03-07T07:20:15;110.78;;;47.47;;
37655;SDS011;23498;50.958;3.124;2024-03-07T07:22:46;106.55;;;46.78;;
37655;SDS011;23498;50.958;3.124;2024-03-07T07:25:16;107.90;;;48.80;;
37655;SDS011;23498;50.958;3.124;2024-03-07T07:27:57;114.57;;;47.55;;
37655;SDS011;23498;50.958;3.124;2024-03-07T07:30:23;112.35;;;47.65;;
37655;SDS011;23498;50.958;3.124;2024-03-07T07:35:40;115.07;;;48.80;;
37655;SDS011;23498;50.958;3.124;2024-03-07T07:38:29;111.15;;;48.75;;
37655;SDS011;23498;50.958;3.124;2024-03-07T07:41:15;118.35;;;50.22;;
37655;SDS011;23498;50.958;3.124;2024-03-07T07:43:41;115.13;;;49.08;;
37655;SDS011;23498;50.958;3.124;2024-03-07T07:46:07;117.00;;;50.55;;
37655;SDS011;23498;50.958;3.124;2024-03-07T07:48:33;112.53;;;49.25;;
37655;SDS011;23498;50.958;3.124;2024-03-07T07:50:59;118.80;;;51.42;;
37655;SDS011;23498;50.958;3.124;2024-03-07T07:54:01;116.88;;;49.63;;
37655;SDS011;23498;50.958;3.124;2024-03-07T07:56:28;116.40;;;50.20;;
37655;SDS011;23498;50.958;3.124;2024-03-07T07:58:55;125.30;;;51.95;;
37655;SDS011;23498;50.958;3.124;2024-03-07T08:02:01;130.68;;;52.80;;
37655;SDS011;23498;50.958;3.124;2024-03-07T08:04:35;122.07;;;51.83;;
37655;SDS011;23498;50.958;3.124;2024-03-07T08:07:22;122.10;;;51.25;;
37655;SDS011;23498;50.958;3.124;2024-03-07T08:09:48;135.52;;;53.90;;
37655;SDS011;23498;50.958;3.124;2024-03-07T08:12:35;125.47;;;51.70;;
37655;SDS011;23498;50.958;3.124;2024-03-07T08:15:09;130.52;;;53.53;;
37655;SDS011;23498;50.958;3.124;2024-03-07T08:17:56;133.25;;;53.88;;
37655;SDS011;23498;50.958;3.124;2024-03-07T08:20:42;129.15;;;54.25;;
37655;SDS011;23498;50.958;3.124;2024-03-07T08:23:19;132.02;;;52.30;;
37655;SDS011;23498;50.958;3.124;2024-03-07T08:25:54;128.02;;;54.58;;
37655;SDS011;23498;50.958;3.124;2024-03-07T08:28:34;131.90;;;54.28;;
37655;SDS011;23498;50.958;3.124;2024-03-07T08:31:04;129.65;;;53.13;;
37655;SDS011;23498;50.958;3.124;2024-03-07T08:33:35;130.82;;;55.05;;
37655;SDS011;23498;50.958;3.124;2024-03-07T08:36:03;127.32;;;53.28;;
37655;SDS011;23498;50.958;3.124;2024-03-07T08:38:32;132.50;;;53.03;;
37655;SDS011;23498;50.958;3.124;2024-03-07T08:41:01;134.13;;;53.08;;
37655;SDS011;23498;50.958;3.124;2024-03-07T08:43:29;129.97;;;52.20;;
37655;SDS011;23498;50.958;3.124;2024-03-07T08:45:58;134.65;;;52.05;;
37655;SDS011;23498;50.958;3.124;2024-03-07T08:48:25;126.57;;;51.78;;
37655;SDS011;23498;50.958;3.124;2024-03-07T08:50:51;130.75;;;54.58;;
37655;SDS011;23498;50.958;3.124;2024-03-07T08:53:18;131.27;;;55.40;;
37655;SDS011;23498;50.958;3.124;2024-03-07T08:55:44;133.93;;;55.33;;
37655;SDS011;23498;50.958;3.124;2024-03-07T08:58:12;119.85;;;50.95;;
37655;SDS011;23498;50.958;3.124;2024-03-07T09:00:41;121.85;;;52.25;;
37655;SDS011;23498;50.958;3.124;2024-03-07T09:03:12;123.75;;;52.65;;
37655;SDS011;23498;50.958;3.124;2024-03-07T09:05:43;116.97;;;50.03;;
37655;SDS011;23498;50.958;3.124;2024-03-07T09:08:09;118.05;;;50.58;;
37655;SDS011;23498;50.958;3.124;2024-03-07T09:10:35;120.75;;;49.67;;
37655;SDS011;23498;50.958;3.124;2024-03-07T09:13:01;116.70;;;49.70;;
37655;SDS011;23498;50.958;3.124;2024-03-07T09:15:34;108.43;;;48.38;;
37655;SDS011;23498;50.958;3.124;2024-03-07T09:18:02;110.50;;;46.67;;
37655;SDS011;23498;50.958;3.124;2024-03-07T09:20:30;109.13;;;47.38;;
37655;SDS011;23498;50.958;3.124;2024-03-07T09:22:56;106.03;;;47.22;;
37655;SDS011;23498;50.958;3.124;2024-03-07T09:25:24;107.95;;;49.80;;
37655;SDS011;23498;50.958;3.124;2024-03-07T09:27:50;101.95;;;46.53;;
37655;SDS011;23498;50.958;3.124;2024-03-07T09:30:35;104.10;;;46.90;;
37655;SDS011;23498;50.958;3.124;2024-03-07T09:33:22;100.18;;;45.55;;
37655;SDS011;23498;50.958;3.124;2024-03-07T09:35:51;97.65;;;45.10;;
37655;SDS011;23498;50.958;3.124;2024-03-07T09:38:18;88.35;;;41.92;;
37655;SDS011;23498;50.958;3.124;2024-03-07T09:40:54;95.78;;;43.50;;
37655;SDS011;23498;50.958;3.124;2024-03-07T09:43:20;86.47;;;42.80;;
37655;SDS011;23498;50.958;3.124;2024-03-07T09:45:49;86.85;;;41.10;;
37655;SDS011;23498;50.958;3.124;2024-03-07T09:48:17;82.43;;;39.00;;
37655;SDS011;23498;50.958;3.124;2024-03-07T09:51:01;85.25;;;40.58;;
37655;SDS011;23498;50.958;3.124;2024-03-07T09:53:28;77.93;;;37.17;;
37655;SDS011;23498;50.958;3.124;2024-03-07T09:55:56;81.85;;;40.40;;
37655;SDS011;23498;50.958;3.124;2024-03-07T09:58:23;80.50;;;40.10;;
37655;SDS011;23498;50.958;3.124;2024-03-07T10:01:11;78.95;;;37.78;;
37655;SDS011;23498;50.958;3.124;2024-03-07T10:03:38;78.82;;;38.47;;
37655;SDS011;23498;50.958;3.124;2024-03-07T10:06:10;82.18;;;38.00;;
37655;SDS011;23498;50.958;3.124;2024-03-07T10:08:57;71.50;;;35.42;;
37655;SDS011;23498;50.958;3.124;2024-03-07T10:11:44;74.20;;;36.65;;
37655;SDS011;23498;50.958;3.124;2024-03-07T10:16:58;70.78;;;33.83;;
37655;SDS011;23498;50.958;3.124;2024-03-07T10:19:25;74.47;;;34.80;;
37655;SDS011;23498;50.958;3.124;2024-03-07T10:21:54;67.63;;;35.00;;
37655;SDS011;23498;50.958;3.124;2024-03-07T10:24:51;68.32;;;33.55;;
37655;SDS011;23498;50.958;3.124;2024-03-07T10:27:20;63.83;;;33.78;;
37655;SDS011;23498;50.958;3.124;2024-03-07T10:29:47;63.42;;;31.73;;
37655;SDS011;23498;50.958;3.124;2024-03-07T10:32:19;63.90;;;32.42;;
37655;SDS011;23498;50.958;3.124;2024-03-07T10:34:53;67.13;;;32.72;;
37655;SDS011;23498;50.958;3.124;2024-03-07T10:37:19;71.70;;;33.90;;
37655;SDS011;23498;50.958;3.124;2024-03-07T10:39:46;67.93;;;33.53;;
37655;SDS011;23498;50.958;3.124;2024-03-07T10:42:14;65.97;;;32.40;;
37655;SDS011;23498;50.958;3.124;2024-03-07T10:44:45;62.70;;;31.08;;
37655;SDS011;23498;50.958;3.124;2024-03-07T10:47:15;67.10;;;33.55;;
37655;SDS011;23498;50.958;3.124;2024-03-07T10:49:52;63.90;;;31.50;;
37655;SDS011;23498;50.958;3.124;2024-03-07T10:58:05;67.65;;;34.13;;
37655;SDS011;23498;50.958;3.124;2024-03-07T11:00:37;64.80;;;33.50;;
37655;SDS011;23498;50.958;3.124;2024-03-07T11:03:24;68.40;;;33.58;;
37655;SDS011;23498;50.958;3.124;2024-03-07T11:05:51;66.65;;;32.60;;
37655;SDS011;23498;50.958;3.124;2024-03-07T11:08:17;64.75;;;34.83;;
37655;SDS011;23498;50.958;3.124;2024-03-07T11:10:44;66.63;;;33.47;;
37655;SDS011;23498;50.958;3.124;2024-03-07T11:13:15;67.30;;;32.15;;
37655;SDS011;23498;50.958;3.124;2024-03-07T11:15:44;68.45;;;32.83;;
37655;SDS011;23498;50.958;3.124;2024-03-07T11:18:20;64.95;;;33.60;;
37655;SDS011;23498;50.958;3.124;2024-03-07T11:21:05;61.13;;;30.35;;
37655;SDS011;23498;50.958;3.124;2024-03-07T11:23:51;62.47;;;31.27;;
37655;SDS011;23498;50.958;3.124;2024-03-07T11:26:21;63.00;;;31.92;;
37655;SDS011;23498;50.958;3.124;2024-03-07T11:28:48;58.33;;;30.88;;
37655;SDS011;23498;50.958;3.124;2024-03-07T11:31:30;62.22;;;30.10;;
37655;SDS011;23498;50.958;3.124;2024-03-07T11:34:18;58.55;;;30.58;;
37655;SDS011;23498;50.958;3.124;2024-03-07T11:37:04;55.83;;;28.95;;
37655;SDS011;23498;50.958;3.124;2024-03-07T11:39:46;60.33;;;30.05;;
37655;SDS011;23498;50.958;3.124;2024-03-07T11:42:22;59.15;;;30.70;;
37655;SDS011;23498;50.958;3.124;2024-03-07T11:44:53;58.25;;;30.23;;
37655;SDS011;23498;50.958;3.124;2024-03-07T11:47:21;52.83;;;29.48;;
37655;SDS011;23498;50.958;3.124;2024-03-07T11:49:49;53.70;;;28.35;;
37655;SDS011;23498;50.958;3.124;2024-03-07T11:52:17;58.05;;;30.80;;
37655;SDS011;23498;50.958;3.124;2024-03-07T11:54:47;51.50;;;29.20;;
37655;SDS011;23498;50.958;3.124;2024-03-07T11:57:17;57.75;;;29.55;;
37655;SDS011;23498;50.958;3.124;2024-03-07T12:00:03;54.88;;;29.13;;
37655;SDS011;23498;50.958;3.124;2024-03-07T12:02:41;57.72;;;30.50;;
37655;SDS011;23498;50.958;3.124;2024-03-07T12:05:16;59.38;;;31.00;;
37655;SDS011;23498;50.958;3.124;2024-03-07T12:07:53;59.15;;;30.58;;
37655;SDS011;23498;50.958;3.124;2024-03-07T12:10:22;52.42;;;30.63;;
37655;SDS011;23498;50.958;3.124;2024-03-07T12:12:50;57.13;;;30.05;;
37655;SDS011;23498;50.958;3.124;2024-03-07T12:15:18;54.80;;;29.20;;
37655;SDS011;23498;50.958;3.124;2024-03-07T12:17:45;49.92;;;28.05;;
37655;SDS011;23498;50.958;3.124;2024-03-07T12:20:19;51.53;;;28.75;;
37655;SDS011;23498;50.958;3.124;2024-03-07T12:22:58;51.97;;;28.60;;
37655;SDS011;23498;50.958;3.124;2024-03-07T12:25:37;49.47;;;28.75;;
37655;SDS011;23498;50.958;3.124;2024-03-07T12:30:51;48.90;;;27.27;;
37655;SDS011;23498;50.958;3.124;2024-03-07T12:33:21;50.03;;;28.48;;
37655;SDS011;23498;50.958;3.124;2024-03-07T12:35:52;48.88;;;28.60;;
37655;SDS011;23498;50.958;3.124;2024-03-07T12:38:32;48.50;;;27.98;;
37655;SDS011;23498;50.958;3.124;2024-03-07T12:41:03;54.28;;;29.35;;
37655;SDS011;23498;50.958;3.124;2024-03-07T12:43:31;47.60;;;27.70;;
37655;SDS011;23498;50.958;3.124;2024-03-07T12:45:59;50.20;;;28.75;;
37655;SDS011;23498;50.958;3.124;2024-03-07T12:48:33;50.38;;;28.50;;
37655;SDS011;23498;50.958;3.124;2024-03-07T12:51:02;47.03;;;28.42;;
37655;SDS011;23498;50.958;3.124;2024-03-07T12:56:17;48.25;;;28.35;;
37655;SDS011;23498;50.958;3.124;2024-03-07T12:58:49;48.25;;;28.42;;
37655;SDS011;23498;50.958;3.124;2024-03-07T13:01:19;49.08;;;27.17;;
37655;SDS011;23498;50.958;3.124;2024-03-07T13:04:03;50.17;;;27.90;;
37655;SDS011;23498;50.958;3.124;2024-03-07T13:06:38;45.55;;;27.42;;
37655;SDS011;23498;50.958;3.124;2024-03-07T13:09:30;43.28;;;27.10;;
37655;SDS011;23498;50.958;3.124;2024-03-07T13:12:13;48.35;;;27.48;;
37655;SDS011;23498;50.958;3.124;2024-03-07T13:15:01;49.33;;;28.15;;
37655;SDS011;23498;50.958;3.124;2024-03-07T13:17:42;45.47;;;27.30;;
37655;SDS011;23498;50.958;3.124;2024-03-07T13:20:21;46.95;;;26.88;;
37655;SDS011;23498;50.958;3.124;2024-03-07T13:22:58;47.45;;;27.75;;
37655;SDS011;23498;50.958;3.124;2024-03-07T13:25:37;45.05;;;24.90;;
37655;SDS011;23498;50.958;3.124;2024-03-07T13:28:13;40.17;;;24.80;;
37655;SDS011;23498;50.958;3.124;2024-03-07T13:30:50;39.08;;;24.33;;
37655;SDS011;23498;50.958;3.124;2024-03-07T13:33:23;37.65;;;22.60;;
37655;SDS011;23498;50.958;3.124;2024-03-07T13:35:50;38.35;;;22.52;;
37655;SDS011;23498;50.958;3.124;2024-03-07T13:38:17;36.42;;;22.08;;
37655;SDS011;23498;50.958;3.124;2024-03-07T13:40:47;35.45;;;21.02;;
37655;SDS011;23498;50.958;3.124;2024-03-07T13:43:21;34.95;;;21.90;;
37655;SDS011;23498;50.958;3.124;2024-03-07T13:45:47;36.75;;;21.55;;
37655;SDS011;23498;50.958;3.124;2024-03-07T13:48:13;40.60;;;23.77;;
37655;SDS011;23498;50.958;3.124;2024-03-07T13:50:43;37.42;;;22.83;;
37655;SDS011;23498;50.958;3.124;2024-03-07T13:53:10;40.05;;;23.70;;
37655;SDS011;23498;50.958;3.124;2024-03-07T14:15:38;32.08;;;20.25;;
37655;SDS011;23498;50.958;3.124;2024-03-07T14:21:06;32.83;;;19.85;;
37655;SDS011;23498;50.958;3.124;2024-03-07T14:23:42;35.25;;;20.85;;
37655;SDS011;23498;50.958;3.124;2024-03-07T14:31:32;37.30;;;22.00;;
37655;SDS011;23498;50.958;3.124;2024-03-07T14:34:18;36.80;;;22.63;;
37655;SDS011;23498;50.958;3.124;2024-03-07T14:36:51;37.13;;;23.63;;
37655;SDS011;23498;50.958;3.124;2024-03-07T14:39:22;36.13;;;21.95;;
37655;SDS011;23498;50.958;3.124;2024-03-07T14:44:14;36.78;;;23.00;;
37655;SDS011;23498;50.958;3.124;2024-03-07T14:47:00;38.65;;;23.95;;
37655;SDS011;23498;50.958;3.124;2024-03-07T14:49:32;40.28;;;24.75;;
37655;SDS011;23498;50.958;3.124;2024-03-07T14:51:59;39.85;;;23.90;;
37655;SDS011;23498;50.958;3.124;2024-03-07T14:54:25;39.75;;;24.30;;
37655;SDS011;23498;50.958;3.124;2024-03-07T14:56:52;39.58;;;23.45;;
37655;SDS011;23498;50.958;3.124;2024-03-07T14:59:19;37.13;;;24.70;;
37655;SDS011;23498;50.958;3.124;2024-03-07T15:01:46;37.95;;;24.35;;
37655;SDS011;23498;50.958;3.124;2024-03-07T15:04:12;39.25;;;24.10;;
37655;SDS011;23498;50.958;3.124;2024-03-07T15:06:40;36.97;;;23.00;;
37655;SDS011;23498;50.958;3.124;2024-03-07T15:09:10;37.97;;;24.27;;
37655;SDS011;23498;50.958;3.124;2024-03-07T15:11:39;38.53;;;23.48;;
37655;SDS011;23498;50.958;3.124;2024-03-07T15:14:08;43.28;;;25.20;;
37655;SDS011;23498;50.958;3.124;2024-03-07T15:16:38;36.60;;;24.08;;
37655;SDS011;23498;50.958;3.124;2024-03-07T15:19:08;35.53;;;24.50;;
37655;SDS011;23498;50.958;3.124;2024-03-07T15:21:36;39.63;;;24.70;;
37655;SDS011;23498;50.958;3.124;2024-03-07T15:24:05;40.72;;;25.25;;
37655;SDS011;23498;50.958;3.124;2024-03-07T15:26:32;40.13;;;25.10;;
37655;SDS011;23498;50.958;3.124;2024-03-07T15:29:00;42.13;;;25.35;;